Latest Weather Observations for Thredbo Top Station

IDN60901

Issued at 10:45 am EST Tuesday 16 September 2014 (issued every 10 minutes, with the page automatically refreshed every 10 minutes)

About weather observations | Map of Canberra area stations | Latest observations for Canberra area | Other Formats
Station Details ID: 071032 Name: THREDBO AWS Lat: -36.49 Lon: 148.29 Height: 1957.0 m
Data from the previous 72 hours. | See also: Recent months at Thredbo Top Station
Date/Time
EST
Tmp

°C
App
Tmp
°C
Dew
Point
°C
Rel
Hum
%
Delta-T

°C
Wind Press
QNH
hPa
Press
MSL
hPa
Rain
since
9 am
mm
Dir
 
Spd
km/h
Gust
km/h
Spd
kts
Gust
kts
16/10:30am 2.5 -4.6 1.5 93 0.4 WNW 28 35 15 19 1009.9 1012.7 0.0
16/10:00am 3.0 -3.7 1.4 89 0.7 NW 26 32 14 17 1009.8 1012.6 0.0
16/09:30am 2.5 -5.5 0.7 88 0.7 WNW 32 39 17 21 1009.9 1012.7 0.0
16/09:00am 2.8 -6.5 0.7 86 0.9 WNW 39 44 21 24 1009.9 1012.7 2.8
16/08:30am 2.7 -5.5 0.1 83 1.1 NW 33 39 18 21 1010.1 1013.0 2.8
16/08:00am 2.9 -6.5 -0.2 80 1.3 NW 39 52 21 28 1010.3 1013.2 2.8
16/07:30am 3.2 -4.9 -0.4 77 1.5 NW 32 46 17 25 1010.6 1013.5 2.8
16/07:00am 3.6 -3.4 -0.8 73 1.8 NNW 26 30 14 16 1010.6 1013.5 2.8
16/06:30am 3.5 -2.8 -1.1 72 1.8 NNW 22 30 12 16 1010.6 1013.5 2.8
16/06:00am 4.0 -3.0 -0.8 71 1.9 NW 26 37 14 20 1010.3 1013.2 2.8
16/05:30am 3.8 -2.5 -1.0 71 1.9 NNW 22 30 12 16 1010.2 1013.1 2.8
16/05:00am 3.9 -2.7 -0.7 72 1.9 NW 24 39 13 21 1010.4 1013.3 2.8
16/04:30am 3.0 -4.3 -0.1 80 1.3 NNW 28 41 15 22 1010.8 1013.7 2.8
16/04:00am 3.9 -3.1 -0.5 73 1.8 NNW 26 35 14 19 1010.7 1013.6 2.8
16/03:30am 3.0 -3.1 0.1 81 1.2 NNW 22 32 12 17 1010.6 1013.5 2.8
16/03:00am 2.4 -3.7 0.3 86 0.9 NNW 22 26 12 14 1011.0 1013.9 2.8
16/02:30am 2.7 -4.2 0.4 85 0.9 WNW 26 33 14 18 1011.7 1014.6 2.8
16/02:00am 3.0 -1.8 0.2 82 1.2 WNW 15 20 8 11 1011.9 1014.9 2.6
16/01:30am 3.5 -4.6 0.0 78 1.4 WNW 32 46 17 25 1012.3 1015.2 2.2
16/01:00am 3.0 -6.4 0.1 81 1.2 NW 39 48 21 26 1012.5 1015.5 2.2
16/12:30am 2.9 -5.3 0.1 82 1.1 NW 33 43 18 23 1012.8 1015.8 2.2
16/12:00am 3.0 -6.0 0.2 82 1.2 NW 37 43 20 23 1013.0 1015.9 2.2
 
Date/Time
EST
Tmp

°C
App
Tmp
°C
Dew
Point
°C
Rel
Hum
%
Delta-T

°C
Wind Press
QNH
hPa
Press
MSL
hPa
Rain
since
9 am
mm
Dir
 
Spd
km/h
Gust
km/h
Spd
kts
Gust
kts
15/11:30pm 2.6 -6.7 0.7 87 0.8 NW 39 43 21 23 1013.2 1016.2 2.2
15/11:00pm 2.5 -7.2 0.7 88 0.7 NW 41 48 22 26 1013.6 1016.7 2.2
15/10:30pm 2.6 -5.9 0.7 87 0.8 NW 35 41 19 22 1014.2 1017.2 2.2
15/10:00pm 1.7 -5.9 0.8 94 0.4 NW 30 35 16 19 1014.6 1017.6 2.2
15/09:30pm 1.2 -6.9 1.1 99 0.0 NW 33 39 18 21 1014.9 1018.0 2.2
15/09:00pm 1.6 -6.5 1.2 97 0.2 WNW 33 41 18 22 1015.1 1018.2 2.2
15/08:30pm 1.5 -8.7 0.8 95 0.3 WNW 44 52 24 28 1015.5 1018.5 1.4
15/08:00pm 1.8 -6.3 1.1 95 0.3 WNW 33 39 18 21 1015.4 1018.4 0.6
15/07:30pm 1.8 -6.7 0.8 93 0.4 WNW 35 39 19 21 1015.2 1018.3 0.6
15/07:00pm 2.1 -6.0 0.8 91 0.5 WNW 33 41 18 22 1015.2 1018.3 0.2
15/06:30pm 2.5 -5.2 0.2 85 0.9 WNW 30 35 16 19 1015.1 1018.2 0.0
15/06:00pm 2.9 -5.1 0.1 82 1.1 WNW 32 39 17 21 1015.0 1018.1 0.0
15/05:30pm 2.9 -3.6 0.0 81 1.2 NW 24 30 13 16 1014.9 1018.0 0.0
15/05:00pm 2.9 -4.1 -0.4 79 1.3 NW 26 28 14 15 1014.8 1017.8 0.0
15/04:30pm 3.0 -3.5 0.4 83 1.1 WNW 24 28 13 15 1014.9 1018.0 0.0
15/04:00pm 3.2 -2.9 0.6 83 1.1 WNW 22 24 12 13 1014.8 1017.8 0.0
15/03:30pm 3.5 -2.1 -0.1 77 1.5 WNW 19 24 10 13 1014.8 1017.8 0.0
15/03:00pm 3.6 -2.0 1.0 83 1.1 WNW 20 24 11 13 1014.9 1018.0 0.0
15/02:30pm 4.1 -1.1 -0.1 74 1.7 W 17 26 9 14 1015.1 1018.2 0.0
15/02:00pm 2.9 -3.6 0.1 82 1.1 WNW 24 28 13 15 1015.4 1018.4 0.0
15/01:30pm 3.8 -1.6 -1.5 68 2.1 W 17 20 9 11 1015.4 1018.4 0.0
15/01:00pm 2.8 -3.4 -0.3 80 1.3 WNW 22 26 12 14 1015.8 1018.9 0.0
15/12:30pm 3.5 -3.1 -0.1 77 1.5 W 24 32 13 17 1016.3 1019.4 0.0
15/12:00pm 3.1 -4.2 -0.2 79 1.3 W 28 33 15 18 1016.6 1019.7 0.0
15/11:30am 2.7 -4.6 -0.1 82 1.1 W 28 35 15 19 1017.0 1020.1 0.0
15/11:00am 2.7 -4.7 -0.4 80 1.2 W 28 33 15 18 1017.4 1020.6 0.0
15/10:30am 2.8 -4.2 -0.3 80 1.3 W 26 33 14 18 1017.4 1020.6 0.0
15/10:00am 2.4 -5.0 -0.5 81 1.2 W 28 35 15 19 1017.6 1020.8 0.0
15/09:30am 2.8 -3.1 -0.6 78 1.4 W 20 30 11 16 1017.8 1020.9 0.0
15/09:00am 2.3 -3.6 -0.8 80 1.2 W 20 28 11 15 1017.8 1020.9 0.0
15/08:30am 2.2 -3.7 -1.1 79 1.3 WSW 20 30 11 16 1017.6 1020.8 0.0
15/08:00am 2.0 -3.8 -1.6 77 1.4 WSW 19 26 10 14 1017.8 1020.9 0.0
15/07:30am 1.8 -4.1 -2.1 75 1.5 SW 19 24 10 13 1017.5 1020.7 0.0
15/07:00am 1.0 -4.6 -2.9 75 1.5 SW 17 22 9 12 1017.5 1020.7 0.0
15/06:30am 1.0 -5.1 -2.6 77 1.4 SW 20 26 11 14 1017.5 1020.7 0.0
15/06:00am 0.7 -5.5 -2.9 77 1.4 SW 20 28 11 15 1017.4 1020.6 0.0
15/05:30am 0.7 -5.9 -3.0 76 1.4 SSW 22 32 12 17 1017.4 1020.6 0.0
15/05:00am 0.9 -6.4 -3.2 74 1.6 SSW 26 35 14 19 1017.3 1020.4 0.0
15/04:30am 1.0 -6.3 -3.1 74 1.6 SW 26 37 14 20 1017.5 1020.7 0.0
15/04:00am 0.6 -6.0 -3.3 75 1.5 SW 22 33 12 18 1017.4 1020.6 0.0
15/03:30am 0.5 -6.9 -3.6 74 1.5 SW 26 35 14 19 1017.6 1020.8 0.0
15/03:00am -0.4 -6.6 -3.1 82 1.0 WSW 20 24 11 13 1017.9 1021.0 0.0
15/02:30am -0.5 -6.6 -2.5 86 0.7 W 20 26 11 14 1018.2 1021.4 0.0
15/02:00am -0.4 -5.4 -1.4 93 0.4 W 15 22 8 12 1018.6 1021.7 0.0
15/01:30am -0.3 -6.2 -1.0 95 0.3 W 20 26 11 14 1018.7 1021.9 0.0
15/01:00am -0.1 -4.7 -0.8 95 0.3 W 13 20 7 11 1019.0 1022.2 0.0
15/12:30am 0.4 -5.5 -0.7 92 0.5 W 20 28 11 15 1019.0 1022.2 0.0
15/12:00am 0.1 -5.3 -1.0 92 0.4 WNW 17 19 9 10 1019.1 1022.3 0.0
 
Date/Time
EST
Tmp

°C
App
Tmp
°C
Dew
Point
°C
Rel
Hum
%
Delta-T

°C
Wind Press
QNH
hPa
Press
MSL
hPa
Rain
since
9 am
mm
Dir
 
Spd
km/h
Gust
km/h
Spd
kts
Gust
kts
14/11:30pm -0.5 -4.7 -0.8 98 0.1 W 11 15 6 8 1019.2 1022.4 0.0
14/11:00pm -2.0 -6.9 -3.1 92 0.3 WNW 13 15 7 8 1019.4 1022.6 0.0
14/10:30pm 0.5 -5.3 -0.4 94 0.4 WNW 20 24 11 13 1019.6 1022.8 0.0
14/10:00pm 0.4 -5.3 -0.9 91 0.5 WNW 19 22 10 12 1019.8 1023.0 0.0
14/09:30pm -0.3 -5.7 -1.7 90 0.5 WNW 17 22 9 12 1019.7 1022.9 0.0
14/09:00pm 0.0 -6.7 -1.0 93 0.4 WNW 24 26 13 14 1019.6 1022.8 0.0
14/08:30pm -0.5 -7.3 -1.8 91 0.5 WNW 24 28 13 15 1019.6 1022.8 0.0
14/08:00pm 1.2 -5.0 -0.1 91 0.5 WNW 22 26 12 14 1019.5 1022.7 0.0
14/07:30pm 1.3 -4.8 0.1 92 0.5 WNW 22 26 12 14 1019.2 1022.4 0.0
14/07:00pm 0.7 -5.9 -0.3 93 0.4 WNW 24 26 13 14 1019.1 1022.3 0.0
14/06:30pm 0.7 -5.5 -0.2 94 0.4 WNW 22 26 12 14 1018.8 1022.0 0.0
14/06:00pm 0.3 -5.4 -0.5 94 0.3 NW 19 20 10 11 1018.6 1021.7 0.0
14/05:30pm 0.9 -5.7 -0.1 93 0.4 NW 24 26 13 14 1018.4 1021.6 0.0
14/05:00pm 1.8 -4.7 0.6 92 0.5 WNW 24 26 13 14 1018.7 1021.9 0.0
14/04:30pm 1.8 -4.3 0.6 92 0.5 WNW 22 28 12 15 1018.6 1021.7 0.0
14/04:00pm 2.6 -4.2 0.7 87 0.8 WNW 26 32 14 17 1018.4 1021.6 0.0
14/03:30pm 2.7 -4.1 0.8 87 0.8 WNW 26 30 14 16 1018.4 1021.6 0.0
14/03:00pm 2.8 -3.3 0.4 84 1.0 WNW 22 26 12 14 1018.4 1021.6 0.0
14/02:30pm 4.1 -1.4 0.4 77 1.5 W 19 24 10 13 1018.2 1021.4 0.0
14/02:00pm 3.9 -2.2 0.4 78 1.5 W 22 30 12 16 1018.2 1021.4 0.0
14/01:30pm 3.6 -2.6 -0.6 74 1.7 WSW 22 28 12 15 1018.2 1021.4 0.0
14/01:00pm 3.7 -3.0 -1.1 71 1.9 W 24 32 13 17 1018.3 1021.5 0.0
14/12:30pm 3.4 -4.1 -1.7 69 2.0 W 28 33 15 18 1018.7 1021.9 0.0
14/12:00pm 3.4 -3.9 -2.5 65 2.3 W 26 35 14 19 1018.9 1022.1 0.0
14/11:30am 3.6 -3.0 -3.6 59 2.7 W 22 32 12 17 1019.1 1022.3 0.0
14/11:00am 3.5 -4.3 -4.2 57 2.8 W 28 35 15 19 1019.6 1022.8 0.0
14/10:30am 3.5 -5.6 -7.6 44 4.0 W 33 41 18 22 1019.4 1022.6 0.0
14/10:00am 3.0 -6.1 -9.3 40 4.1 W 32 41 17 22 1019.6 1022.8 0.0
14/09:30am 2.4 -7.2 -9.2 42 3.9 W 35 41 19 22 1019.9 1023.2 0.0
14/09:00am 2.1 -7.2 -9.1 43 3.7 W 33 43 18 23 1020.2 1023.4 0.0
14/08:30am 2.2 -7.4 -8.8 44 3.7 W 35 43 19 23 1020.2 1023.4 0.0
14/08:00am 2.1 -6.9 -8.9 44 3.7 W 32 37 17 20 1020.2 1023.4 0.0
14/07:30am 1.9 -7.3 -8.8 45 3.6 W 33 41 18 22 1020.0 1023.3 0.0
14/07:00am 1.8 -7.4 -8.8 45 3.5 W 33 41 18 22 1020.0 1023.3 0.0
14/06:30am 1.4 -7.3 -8.9 46 3.4 W 30 33 16 18 1019.9 1023.2 0.0
14/06:00am 1.4 -7.3 -9.5 44 3.5 W 30 35 16 19 1019.9 1023.2 0.0
14/05:30am 0.5 -7.1 -10.0 45 3.3 W 24 32 13 17 1019.9 1023.2 0.0
14/05:00am 1.3 -7.1 -9.9 43 3.6 W 28 33 15 18 1019.8 1023.0 0.0
14/04:30am 1.2 -7.8 -8.0 50 3.1 W 32 35 17 19 1019.6 1022.8 0.0
14/04:00am 1.1 -7.9 -7.9 51 3.0 W 32 37 17 20 1019.8 1023.0 0.0
14/03:30am 1.2 -7.9 -9.4 45 3.4 W 32 39 17 21 1019.9 1023.2 0.0
14/03:00am 2.6 -6.6 -8.4 44 3.8 WNW 33 41 18 22 1020.2 1023.4 0.0
14/02:30am 1.7 -6.5 -8.1 48 3.3 W 28 35 15 19 1020.5 1023.7 0.0
14/02:00am 2.3 -6.9 -9.0 43 3.8 WNW 33 39 18 21 1021.0 1024.2 0.0
14/01:30am 3.0 -6.2 -8.3 43 3.9 W 33 39 18 21 1021.2 1024.5 0.0
14/01:00am 2.1 -7.0 -7.2 50 3.2 W 33 39 18 21 1021.5 1024.8 0.0
14/12:30am 2.8 -5.8 -7.6 46 3.7 W 30 37 16 20 1021.8 1025.0 0.0
14/12:00am 2.7 -5.5 -7.5 47 3.6 W 28 32 15 17 1021.9 1025.2 0.0
 
Date/Time
EST
Tmp

°C
App
Tmp
°C
Dew
Point
°C
Rel
Hum
%
Delta-T

°C
Wind Press
QNH
hPa
Press
MSL
hPa
Rain
since
9 am
mm
Dir
 
Spd
km/h
Gust
km/h
Spd
kts
Gust
kts
13/11:30pm 2.4 -5.4 -7.2 49 3.4 W 26 30 14 16 1022.1 1025.4 0.0
13/11:00pm 1.7 -5.7 -7.3 51 3.1 W 24 28 13 15 1022.3 1025.6 0.0
13/10:30pm 1.8 -4.8 -7.2 51 3.1 W 20 24 11 13 1022.6 1025.9 0.0
13/10:00pm 2.5 -4.0 -7.4 48 3.5 W 19 20 10 11 1022.8 1026.1 0.0
13/09:30pm 2.1 -4.0 -7.5 49 3.3 W 17 19 9 10 1022.9 1026.2 0.0
13/09:00pm 2.2 -3.9 -7.4 49 3.3 W 17 19 9 10 1023.0 1026.3 0.0
13/08:30pm 2.3 -3.8 -7.3 49 3.4 W 17 19 9 10 1023.1 1026.5 0.0
13/08:00pm 2.7 -3.0 -7.5 47 3.6 WSW 15 19 8 10 1023.2 1026.6 0.0
13/07:30pm 3.7 -0.4 -6.8 46 3.6 SSW 7 11 4 6 1023.0 1026.3 0.0
13/07:00pm 4.0 0.5 -6.6 46 3.7 W 4 7 2 4 1022.9 1026.2 0.0
13/06:30pm 3.4 -0.7 -8.3 42 4.1 W 6 11 3 6 1022.7 1026.0 0.0
13/06:00pm 4.5 1.0 -6.4 45 3.8 SSW 4 7 2 4 1022.6 1025.9 0.0
13/05:30pm 4.4 -0.2 -7.7 41 4.1 SW 9 17 5 9 1022.2 1025.5 0.0
13/05:00pm 4.6 -0.6 -6.3 45 3.9 SW 13 19 7 10 1022.1 1025.4 0.0
13/04:30pm 4.0 -2.4 -4.9 52 3.2 W 20 24 11 13 1022.0 1025.3 0.0
13/04:00pm 3.3 -2.7 0.9 84 1.0 W 22 24 12 13 1022.1 1025.4 0.0
13/03:30pm 4.1 -2.8 -3.0 60 2.7 WNW 24 30 13 16 1022.1 1025.4 0.0
13/03:00pm 4.1 -2.8 -2.5 62 2.6 NW 24 28 13 15 1022.1 1025.4 0.0
13/02:30pm 5.4 -1.0 -7.1 40 4.4 WNW 19 24 10 13 1022.2 1025.5 0.0
13/02:00pm 5.5 -1.1 -9.5 33 4.9 WNW 19 24 10 13 1022.4 1025.8 0.0
13/01:30pm 5.2 -1.3 -6.3 43 4.1 W 20 24 11 13 1022.7 1026.0 0.0
13/01:00pm 5.3 -1.3 -8.9 35 4.7 W 19 24 10 13 1022.8 1026.1 0.0
13/12:30pm 7.0 3.1 -6.7 37 5.0 WNW 6 9 3 5 1023.1 1026.5 0.0
13/12:00pm 6.5 2.3 -8.2 34 5.1 NW 7 9 4 5 1023.5 1026.8 0.0
13/11:30am 5.8 1.6 -8.1 36 4.8 WNW 7 9 4 5 1023.6 1026.9 0.0
13/11:00am 6.2 2.3 -4.8 45 4.1 WNW 7 7 4 4 1023.8 1027.2 0.0

Latest Capital City Observations: Canberra | Sydney | Melbourne | Brisbane | Adelaide | Perth | Hobart | Darwin

Other Formats:

Comma delimited format used in spreadsheet applications
http://www.bom.gov.au/fwo/IDN60903/IDN60903.95909.axf

JavaScript Object Notation format (JSON) in row-major order
http://www.bom.gov.au/fwo/IDN60903/IDN60903.95909.json